sensor_id;sensor_type;location;lat;lon;timestamp;temperature;humidity
10030;DHT22;5055;52.054;8.524;2023-04-03T00:01:21;2.40;97.00
10030;DHT22;5055;52.054;8.524;2023-04-03T00:03:50;2.30;97.00
10030;DHT22;5055;52.054;8.524;2023-04-03T00:06:19;2.30;97.00
10030;DHT22;5055;52.054;8.524;2023-04-03T00:08:47;2.30;97.00
10030;DHT22;5055;52.054;8.524;2023-04-03T00:11:16;2.30;97.00
10030;DHT22;5055;52.054;8.524;2023-04-03T00:13:44;2.30;97.00
10030;DHT22;5055;52.054;8.524;2023-04-03T00:16:14;2.30;97.00
10030;DHT22;5055;52.054;8.524;2023-04-03T00:18:43;2.20;97.00
10030;DHT22;5055;52.054;8.524;2023-04-03T00:21:13;2.20;97.00
10030;DHT22;5055;52.054;8.524;2023-04-03T00:23:42;2.10;97.00
10030;DHT22;5055;52.054;8.524;2023-04-03T00:26:11;2.00;97.00
10030;DHT22;5055;52.054;8.524;2023-04-03T00:28:39;2.00;97.00
10030;DHT22;5055;52.054;8.524;2023-04-03T00:31:08;1.90;97.00
10030;DHT22;5055;52.054;8.524;2023-04-03T00:33:37;1.80;97.00
10030;DHT22;5055;52.054;8.524;2023-04-03T00:36:07;1.80;97.00
10030;DHT22;5055;52.054;8.524;2023-04-03T00:38:36;1.70;97.00
10030;DHT22;5055;52.054;8.524;2023-04-03T00:41:04;1.70;97.00
10030;DHT22;5055;52.054;8.524;2023-04-03T00:43:36;1.70;97.00
10030;DHT22;5055;52.054;8.524;2023-04-03T00:46:05;1.70;97.00
10030;DHT22;5055;52.054;8.524;2023-04-03T00:48:37;1.60;97.00
10030;DHT22;5055;52.054;8.524;2023-04-03T00:51:11;1.60;97.00
10030;DHT22;5055;52.054;8.524;2023-04-03T00:53:44;1.50;97.00
10030;DHT22;5055;52.054;8.524;2023-04-03T00:56:16;1.50;97.00
10030;DHT22;5055;52.054;8.524;2023-04-03T00:58:49;1.50;97.00
10030;DHT22;5055;52.054;8.524;2023-04-03T01:01:21;1.50;97.00
10030;DHT22;5055;52.054;8.524;2023-04-03T01:03:52;1.40;97.00
10030;DHT22;5055;52.054;8.524;2023-04-03T01:06:24;1.40;97.00
10030;DHT22;5055;52.054;8.524;2023-04-03T01:08:55;1.40;97.00
10030;DHT22;5055;52.054;8.524;2023-04-03T01:11:23;1.40;97.00
10030;DHT22;5055;52.054;8.524;2023-04-03T01:13:52;1.40;97.00
10030;DHT22;5055;52.054;8.524;2023-04-03T01:16:21;1.30;97.00
10030;DHT22;5055;52.054;8.524;2023-04-03T01:18:52;1.30;97.00
10030;DHT22;5055;52.054;8.524;2023-04-03T01:24:33;1.30;97.00
10030;DHT22;5055;52.054;8.524;2023-04-03T01:27:05;1.30;97.00
10030;DHT22;5055;52.054;8.524;2023-04-03T01:29:34;1.20;97.00
10030;DHT22;5055;52.054;8.524;2023-04-03T01:32:04;1.20;97.00
10030;DHT22;5055;52.054;8.524;2023-04-03T01:34:34;1.20;97.00
10030;DHT22;5055;52.054;8.524;2023-04-03T01:37:02;1.20;97.00
10030;DHT22;5055;52.054;8.524;2023-04-03T01:39:30;1.20;97.00
10030;DHT22;5055;52.054;8.524;2023-04-03T01:41:59;1.10;97.00
10030;DHT22;5055;52.054;8.524;2023-04-03T01:44:27;1.10;97.00
10030;DHT22;5055;52.054;8.524;2023-04-03T01:46:56;1.10;97.00
10030;DHT22;5055;52.054;8.524;2023-04-03T01:49:28;1.10;97.00
10030;DHT22;5055;52.054;8.524;2023-04-03T01:51:57;1.00;97.00
10030;DHT22;5055;52.054;8.524;2023-04-03T01:54:25;1.00;97.00
10030;DHT22;5055;52.054;8.524;2023-04-03T01:56:53;1.00;97.00
10030;DHT22;5055;52.054;8.524;2023-04-03T01:59:22;0.90;97.00
10030;DHT22;5055;52.054;8.524;2023-04-03T02:01:50;0.80;97.00
10030;DHT22;5055;52.054;8.524;2023-04-03T02:04:19;0.80;97.00
10030;DHT22;5055;52.054;8.524;2023-04-03T02:06:49;0.80;97.00
10030;DHT22;5055;52.054;8.524;2023-04-03T02:09:17;0.80;97.00
10030;DHT22;5055;52.054;8.524;2023-04-03T02:11:46;0.70;97.00
10030;DHT22;5055;52.054;8.524;2023-04-03T02:14:14;0.70;97.00
10030;DHT22;5055;52.054;8.524;2023-04-03T02:16:42;0.70;97.00
10030;DHT22;5055;52.054;8.524;2023-04-03T02:19:11;0.70;97.00
10030;DHT22;5055;52.054;8.524;2023-04-03T02:21:39;0.70;97.00
10030;DHT22;5055;52.054;8.524;2023-04-03T02:24:15;0.70;97.00
10030;DHT22;5055;52.054;8.524;2023-04-03T02:26:44;0.70;97.00
10030;DHT22;5055;52.054;8.524;2023-04-03T02:29:14;0.60;97.00
10030;DHT22;5055;52.054;8.524;2023-04-03T02:31:44;0.60;97.00
10030;DHT22;5055;52.054;8.524;2023-04-03T02:34:13;0.60;97.00
10030;DHT22;5055;52.054;8.524;2023-04-03T02:36:41;0.60;97.00
10030;DHT22;5055;52.054;8.524;2023-04-03T02:39:10;0.60;97.00
10030;DHT22;5055;52.054;8.524;2023-04-03T02:41:40;0.60;97.00
10030;DHT22;5055;52.054;8.524;2023-04-03T02:44:12;0.50;97.00
10030;DHT22;5055;52.054;8.524;2023-04-03T02:46:41;0.50;97.00
10030;DHT22;5055;52.054;8.524;2023-04-03T02:49:09;0.40;97.00
10030;DHT22;5055;52.054;8.524;2023-04-03T02:51:38;0.40;97.00
10030;DHT22;5055;52.054;8.524;2023-04-03T02:54:06;0.40;97.00
10030;DHT22;5055;52.054;8.524;2023-04-03T02:56:34;0.30;97.00
10030;DHT22;5055;52.054;8.524;2023-04-03T02:59:05;0.20;97.00
10030;DHT22;5055;52.054;8.524;2023-04-03T03:01:33;0.10;97.00
10030;DHT22;5055;52.054;8.524;2023-04-03T03:04:03;0.00;97.00
10030;DHT22;5055;52.054;8.524;2023-04-03T03:06:31;0.00;97.00
10030;DHT22;5055;52.054;8.524;2023-04-03T03:08:59;-0.10;97.00
10030;DHT22;5055;52.054;8.524;2023-04-03T03:11:28;-0.20;97.00
10030;DHT22;5055;52.054;8.524;2023-04-03T03:13:58;-0.20;97.00
10030;DHT22;5055;52.054;8.524;2023-04-03T03:16:28;-0.20;97.00
10030;DHT22;5055;52.054;8.524;2023-04-03T03:18:56;-0.30;97.00
10030;DHT22;5055;52.054;8.524;2023-04-03T03:21:25;-0.20;97.00
10030;DHT22;5055;52.054;8.524;2023-04-03T03:23:53;-0.20;97.00
10030;DHT22;5055;52.054;8.524;2023-04-03T03:26:21;-0.20;97.00
10030;DHT22;5055;52.054;8.524;2023-04-03T03:28:50;-0.20;97.00
10030;DHT22;5055;52.054;8.524;2023-04-03T03:31:19;-0.20;97.00
10030;DHT22;5055;52.054;8.524;2023-04-03T03:33:49;-0.20;97.00
10030;DHT22;5055;52.054;8.524;2023-04-03T03:36:17;-0.20;97.00
10030;DHT22;5055;52.054;8.524;2023-04-03T03:38:45;-0.20;97.00
10030;DHT22;5055;52.054;8.524;2023-04-03T03:41:14;-0.20;97.00
10030;DHT22;5055;52.054;8.524;2023-04-03T03:43:42;-0.20;97.00
10030;DHT22;5055;52.054;8.524;2023-04-03T03:46:11;-0.20;97.00
10030;DHT22;5055;52.054;8.524;2023-04-03T03:48:39;-0.20;97.00
10030;DHT22;5055;52.054;8.524;2023-04-03T03:51:09;-0.30;97.00
10030;DHT22;5055;52.054;8.524;2023-04-03T03:53:37;-0.30;97.00
10030;DHT22;5055;52.054;8.524;2023-04-03T03:56:06;-0.40;97.00
10030;DHT22;5055;52.054;8.524;2023-04-03T03:58:35;-0.50;97.00
10030;DHT22;5055;52.054;8.524;2023-04-03T04:01:07;-0.50;97.00
10030;DHT22;5055;52.054;8.524;2023-04-03T04:03:45;-0.60;97.00
10030;DHT22;5055;52.054;8.524;2023-04-03T04:06:16;-0.70;97.00
10030;DHT22;5055;52.054;8.524;2023-04-03T04:08:44;-0.80;97.00
10030;DHT22;5055;52.054;8.524;2023-04-03T04:11:13;-0.80;97.00
10030;DHT22;5055;52.054;8.524;2023-04-03T04:13:41;-0.90;97.00
10030;DHT22;5055;52.054;8.524;2023-04-03T04:16:09;-0.90;97.00
10030;DHT22;5055;52.054;8.524;2023-04-03T04:18:38;-1.00;97.00
10030;DHT22;5055;52.054;8.524;2023-04-03T04:21:06;-1.00;97.00
10030;DHT22;5055;52.054;8.524;2023-04-03T04:23:36;-1.00;97.00
10030;DHT22;5055;52.054;8.524;2023-04-03T04:26:04;-1.00;97.00
10030;DHT22;5055;52.054;8.524;2023-04-03T04:28:32;-1.10;97.00
10030;DHT22;5055;52.054;8.524;2023-04-03T04:31:01;-1.10;97.00
10030;DHT22;5055;52.054;8.524;2023-04-03T04:33:30;-1.10;97.00
10030;DHT22;5055;52.054;8.524;2023-04-03T04:35:58;-1.10;97.00
10030;DHT22;5055;52.054;8.524;2023-04-03T04:38:26;-1.10;97.00
10030;DHT22;5055;52.054;8.524;2023-04-03T04:40:56;-1.20;97.00
10030;DHT22;5055;52.054;8.524;2023-04-03T04:43:25;-1.20;97.00
10030;DHT22;5055;52.054;8.524;2023-04-03T04:46:01;-1.20;97.00
10030;DHT22;5055;52.054;8.524;2023-04-03T04:48:29;-1.30;97.00
10030;DHT22;5055;52.054;8.524;2023-04-03T04:51:01;-1.30;97.00
10030;DHT22;5055;52.054;8.524;2023-04-03T04:53:37;-1.30;97.00
10030;DHT22;5055;52.054;8.524;2023-04-03T04:56:07;-1.30;97.00
10030;DHT22;5055;52.054;8.524;2023-04-03T04:58:38;-1.20;97.00
10030;DHT22;5055;52.054;8.524;2023-04-03T05:01:10;-1.20;97.00
10030;DHT22;5055;52.054;8.524;2023-04-03T05:03:39;-1.20;97.00
10030;DHT22;5055;52.054;8.524;2023-04-03T05:06:07;-1.20;97.00
10030;DHT22;5055;52.054;8.524;2023-04-03T05:08:39;-1.20;97.00
10030;DHT22;5055;52.054;8.524;2023-04-03T05:11:08;-1.20;97.00
10030;DHT22;5055;52.054;8.524;2023-04-03T05:13:37;-1.30;97.00
10030;DHT22;5055;52.054;8.524;2023-04-03T05:16:05;-1.30;97.00
10030;DHT22;5055;52.054;8.524;2023-04-03T05:18:34;-1.30;97.00
10030;DHT22;5055;52.054;8.524;2023-04-03T05:21:03;-1.20;97.00
10030;DHT22;5055;52.054;8.524;2023-04-03T05:23:31;-1.10;97.00
10030;DHT22;5055;52.054;8.524;2023-04-03T05:25:59;-1.00;97.00
10030;DHT22;5055;52.054;8.524;2023-04-03T05:28:29;-0.80;97.00
10030;DHT22;5055;52.054;8.524;2023-04-03T05:30:58;-0.60;97.00
10030;DHT22;5055;52.054;8.524;2023-04-03T05:33:27;-0.50;97.00
10030;DHT22;5055;52.054;8.524;2023-04-03T05:35:55;-0.30;97.00
10030;DHT22;5055;52.054;8.524;2023-04-03T05:38:24;-0.30;97.00
10030;DHT22;5055;52.054;8.524;2023-04-03T05:40:53;-0.30;97.00
10030;DHT22;5055;52.054;8.524;2023-04-03T05:43:21;-0.40;97.00
10030;DHT22;5055;52.054;8.524;2023-04-03T05:45:51;-0.30;97.00
10030;DHT22;5055;52.054;8.524;2023-04-03T05:48:20;-0.20;97.00
10030;DHT22;5055;52.054;8.524;2023-04-03T05:50:48;0.00;97.00
10030;DHT22;5055;52.054;8.524;2023-04-03T05:53:20;0.30;97.00
10030;DHT22;5055;52.054;8.524;2023-04-03T05:55:49;0.60;97.00
10030;DHT22;5055;52.054;8.524;2023-04-03T05:58:17;0.80;97.00
10030;DHT22;5055;52.054;8.524;2023-04-03T06:00:46;1.10;97.00
10030;DHT22;5055;52.054;8.524;2023-04-03T06:03:19;1.30;97.00
10030;DHT22;5055;52.054;8.524;2023-04-03T06:05:48;1.60;97.00
10030;DHT22;5055;52.054;8.524;2023-04-03T06:08:17;1.90;97.00
10030;DHT22;5055;52.054;8.524;2023-04-03T06:10:45;2.20;97.00
10030;DHT22;5055;52.054;8.524;2023-04-03T06:13:14;2.50;97.00
10030;DHT22;5055;52.054;8.524;2023-04-03T06:15:43;2.70;97.00
10030;DHT22;5055;52.054;8.524;2023-04-03T06:18:11;2.70;97.00
10030;DHT22;5055;52.054;8.524;2023-04-03T06:20:41;2.80;97.00
10030;DHT22;5055;52.054;8.524;2023-04-03T06:23:09;3.00;97.00
10030;DHT22;5055;52.054;8.524;2023-04-03T06:25:37;3.40;97.00
10030;DHT22;5055;52.054;8.524;2023-04-03T06:28:07;3.60;97.00
10030;DHT22;5055;52.054;8.524;2023-04-03T06:30:37;3.80;97.00
10030;DHT22;5055;52.054;8.524;2023-04-03T06:33:05;3.70;97.00
10030;DHT22;5055;52.054;8.524;2023-04-03T06:35:34;3.90;97.00
10030;DHT22;5055;52.054;8.524;2023-04-03T06:38:04;4.10;97.00
10030;DHT22;5055;52.054;8.524;2023-04-03T06:40:36;4.90;97.00
10030;DHT22;5055;52.054;8.524;2023-04-03T06:43:05;5.80;97.00
10030;DHT22;5055;52.054;8.524;2023-04-03T06:45:34;6.40;97.00
10030;DHT22;5055;52.054;8.524;2023-04-03T06:48:04;6.90;97.00
10030;DHT22;5055;52.054;8.524;2023-04-03T06:50:32;7.20;97.00
10030;DHT22;5055;52.054;8.524;2023-04-03T06:53:00;7.20;97.00
10030;DHT22;5055;52.054;8.524;2023-04-03T06:55:30;7.30;97.00
10030;DHT22;5055;52.054;8.524;2023-04-03T06:57:59;7.30;97.00
10030;DHT22;5055;52.054;8.524;2023-04-03T07:00:27;7.60;97.00
10030;DHT22;5055;52.054;8.524;2023-04-03T07:02:56;7.70;97.00
10030;DHT22;5055;52.054;8.524;2023-04-03T07:05:24;8.00;97.00
10030;DHT22;5055;52.054;8.524;2023-04-03T07:07:53;8.40;97.00
10030;DHT22;5055;52.054;8.524;2023-04-03T07:10:21;8.60;97.00
10030;DHT22;5055;52.054;8.524;2023-04-03T07:12:51;8.40;97.00
10030;DHT22;5055;52.054;8.524;2023-04-03T07:15:19;8.50;97.00
10030;DHT22;5055;52.054;8.524;2023-04-03T07:17:48;8.30;97.00
10030;DHT22;5055;52.054;8.524;2023-04-03T07:20:17;8.40;97.00
10030;DHT22;5055;52.054;8.524;2023-04-03T07:22:45;8.20;97.00
10030;DHT22;5055;52.054;8.524;2023-04-03T07:25:13;8.00;97.00
10030;DHT22;5055;52.054;8.524;2023-04-03T07:27:42;7.80;97.00
10030;DHT22;5055;52.054;8.524;2023-04-03T07:30:13;7.50;97.00
10030;DHT22;5055;52.054;8.524;2023-04-03T07:32:42;7.20;97.00
10030;DHT22;5055;52.054;8.524;2023-04-03T07:35:10;7.20;97.00
10030;DHT22;5055;52.054;8.524;2023-04-03T07:37:39;7.00;97.00
10030;DHT22;5055;52.054;8.524;2023-04-03T07:40:08;7.00;97.00
10030;DHT22;5055;52.054;8.524;2023-04-03T07:42:37;7.10;97.00
10030;DHT22;5055;52.054;8.524;2023-04-03T07:45:06;7.10;97.00
10030;DHT22;5055;52.054;8.524;2023-04-03T07:47:36;6.80;97.00
10030;DHT22;5055;52.054;8.524;2023-04-03T07:50:06;6.70;97.00
10030;DHT22;5055;52.054;8.524;2023-04-03T07:52:34;6.80;97.00
10030;DHT22;5055;52.054;8.524;2023-04-03T07:55:05;7.00;97.00
10030;DHT22;5055;52.054;8.524;2023-04-03T07:57:33;7.30;97.00
10030;DHT22;5055;52.054;8.524;2023-04-03T08:00:02;7.20;97.00
10030;DHT22;5055;52.054;8.524;2023-04-03T08:02:31;7.20;97.00
10030;DHT22;5055;52.054;8.524;2023-04-03T08:05:01;7.00;97.00
10030;DHT22;5055;52.054;8.524;2023-04-03T08:07:29;7.00;97.00
10030;DHT22;5055;52.054;8.524;2023-04-03T08:09:57;7.20;97.00
10030;DHT22;5055;52.054;8.524;2023-04-03T08:12:26;6.80;97.00
10030;DHT22;5055;52.054;8.524;2023-04-03T08:14:55;6.80;97.00
10030;DHT22;5055;52.054;8.524;2023-04-03T08:17:23;6.80;97.00
10030;DHT22;5055;52.054;8.524;2023-04-03T08:19:52;6.90;97.00
10030;DHT22;5055;52.054;8.524;2023-04-03T08:22:22;7.00;97.00
10030;DHT22;5055;52.054;8.524;2023-04-03T08:24:50;6.90;97.00
10030;DHT22;5055;52.054;8.524;2023-04-03T08:27:25;7.10;97.00
10030;DHT22;5055;52.054;8.524;2023-04-03T08:29:54;7.40;97.00
10030;DHT22;5055;52.054;8.524;2023-04-03T08:32:24;7.00;97.00
10030;DHT22;5055;52.054;8.524;2023-04-03T08:34:53;7.00;97.00
10030;DHT22;5055;52.054;8.524;2023-04-03T08:37:22;7.20;97.00
10030;DHT22;5055;52.054;8.524;2023-04-03T08:39:51;7.50;97.00
10030;DHT22;5055;52.054;8.524;2023-04-03T08:42:35;7.70;97.00
10030;DHT22;5055;52.054;8.524;2023-04-03T08:45:09;7.40;97.00
10030;DHT22;5055;52.054;8.524;2023-04-03T08:47:43;7.30;97.00
10030;DHT22;5055;52.054;8.524;2023-04-03T08:50:16;7.50;97.00
10030;DHT22;5055;52.054;8.524;2023-04-03T08:52:50;7.70;97.00
10030;DHT22;5055;52.054;8.524;2023-04-03T08:55:23;7.70;97.00
10030;DHT22;5055;52.054;8.524;2023-04-03T08:57:58;7.80;97.00
10030;DHT22;5055;52.054;8.524;2023-04-03T09:00:32;7.90;97.00
10030;DHT22;5055;52.054;8.524;2023-04-03T09:03:02;8.20;97.00
10030;DHT22;5055;52.054;8.524;2023-04-03T09:05:39;8.20;97.00
10030;DHT22;5055;52.054;8.524;2023-04-03T09:08:21;8.20;97.00
10030;DHT22;5055;52.054;8.524;2023-04-03T09:10:55;8.50;97.00
10030;DHT22;5055;52.054;8.524;2023-04-03T09:13:30;8.60;97.00
10030;DHT22;5055;52.054;8.524;2023-04-03T09:16:02;8.30;97.00
10030;DHT22;5055;52.054;8.524;2023-04-03T09:18:39;8.20;97.00
10030;DHT22;5055;52.054;8.524;2023-04-03T09:21:17;8.00;97.00
10030;DHT22;5055;52.054;8.524;2023-04-03T09:23:50;8.20;97.00
10030;DHT22;5055;52.054;8.524;2023-04-03T09:26:23;8.40;97.00
10030;DHT22;5055;52.054;8.524;2023-04-03T09:28:55;8.30;97.00
10030;DHT22;5055;52.054;8.524;2023-04-03T09:31:27;8.10;97.00
10030;DHT22;5055;52.054;8.524;2023-04-03T09:33:59;7.80;97.00
10030;DHT22;5055;52.054;8.524;2023-04-03T09:36:45;7.70;97.00
10030;DHT22;5055;52.054;8.524;2023-04-03T09:39:16;7.80;97.00
10030;DHT22;5055;52.054;8.524;2023-04-03T09:41:57;7.80;97.00
10030;DHT22;5055;52.054;8.524;2023-04-03T09:44:26;8.00;97.00
10030;DHT22;5055;52.054;8.524;2023-04-03T09:46:55;8.40;97.00
10030;DHT22;5055;52.054;8.524;2023-04-03T09:49:24;8.90;97.00
10030;DHT22;5055;52.054;8.524;2023-04-03T09:51:55;9.10;97.00
10030;DHT22;5055;52.054;8.524;2023-04-03T09:57:19;9.30;97.00
10030;DHT22;5055;52.054;8.524;2023-04-03T09:59:57;9.20;97.00
10030;DHT22;5055;52.054;8.524;2023-04-03T10:02:34;8.80;97.00
10030;DHT22;5055;52.054;8.524;2023-04-03T10:05:03;8.70;97.00
10030;DHT22;5055;52.054;8.524;2023-04-03T10:07:37;8.50;97.00
10030;DHT22;5055;52.054;8.524;2023-04-03T10:10:21;8.60;97.00
10030;DHT22;5055;52.054;8.524;2023-04-03T10:13:05;8.40;97.00
10030;DHT22;5055;52.054;8.524;2023-04-03T10:15:39;8.50;97.00
10030;DHT22;5055;52.054;8.524;2023-04-03T10:18:24;8.70;97.00
10030;DHT22;5055;52.054;8.524;2023-04-03T10:20:59;8.70;97.00
10030;DHT22;5055;52.054;8.524;2023-04-03T10:23:36;8.80;97.00
10030;DHT22;5055;52.054;8.524;2023-04-03T10:26:14;9.10;97.00
10030;DHT22;5055;52.054;8.524;2023-04-03T10:28:50;9.10;97.00
10030;DHT22;5055;52.054;8.524;2023-04-03T10:31:25;9.70;97.00
10030;DHT22;5055;52.054;8.524;2023-04-03T10:34:05;10.00;97.00
10030;DHT22;5055;52.054;8.524;2023-04-03T10:36:38;9.80;97.00
10030;DHT22;5055;52.054;8.524;2023-04-03T10:39:19;9.70;97.00
10030;DHT22;5055;52.054;8.524;2023-04-03T10:42:03;9.70;97.00
10030;DHT22;5055;52.054;8.524;2023-04-03T10:47:44;9.60;97.00
10030;DHT22;5055;52.054;8.524;2023-04-03T10:50:29;9.30;97.00
10030;DHT22;5055;52.054;8.524;2023-04-03T10:53:04;9.10;97.00
10030;DHT22;5055;52.054;8.524;2023-04-03T10:55:39;8.70;97.00
10030;DHT22;5055;52.054;8.524;2023-04-03T10:58:18;8.90;97.00
10030;DHT22;5055;52.054;8.524;2023-04-03T11:00:50;9.10;97.00
10030;DHT22;5055;52.054;8.524;2023-04-03T11:03:29;9.00;97.00
10030;DHT22;5055;52.054;8.524;2023-04-03T11:06:01;8.70;97.00
10030;DHT22;5055;52.054;8.524;2023-04-03T11:08:34;8.80;97.00
10030;DHT22;5055;52.054;8.524;2023-04-03T11:11:08;9.10;97.00
10030;DHT22;5055;52.054;8.524;2023-04-03T11:13:41;9.60;97.00
10030;DHT22;5055;52.054;8.524;2023-04-03T11:16:18;9.10;97.00
10030;DHT22;5055;52.054;8.524;2023-04-03T11:18:49;9.70;97.00
10030;DHT22;5055;52.054;8.524;2023-04-03T11:21:21;9.60;97.00
10030;DHT22;5055;52.054;8.524;2023-04-03T11:23:56;9.60;97.00
10030;DHT22;5055;52.054;8.524;2023-04-03T11:26:32;9.50;97.00
10030;DHT22;5055;52.054;8.524;2023-04-03T11:29:06;8.90;97.00
10030;DHT22;5055;52.054;8.524;2023-04-03T11:31:47;8.70;97.00
10030;DHT22;5055;52.054;8.524;2023-04-03T11:34:27;8.60;97.00
10030;DHT22;5055;52.054;8.524;2023-04-03T11:37:01;8.30;97.00
10030;DHT22;5055;52.054;8.524;2023-04-03T11:39:34;8.30;97.00
10030;DHT22;5055;52.054;8.524;2023-04-03T11:42:25;8.20;97.00
10030;DHT22;5055;52.054;8.524;2023-04-03T11:45:16;8.10;97.00
10030;DHT22;5055;52.054;8.524;2023-04-03T11:47:48;8.20;97.00
10030;DHT22;5055;52.054;8.524;2023-04-03T11:50:43;8.10;97.00
10030;DHT22;5055;52.054;8.524;2023-04-03T11:53:29;8.10;97.00
10030;DHT22;5055;52.054;8.524;2023-04-03T11:56:03;8.00;97.00
10030;DHT22;5055;52.054;8.524;2023-04-03T11:58:33;8.10;97.00
10030;DHT22;5055;52.054;8.524;2023-04-03T12:01:05;8.10;97.00
10030;DHT22;5055;52.054;8.524;2023-04-03T12:09:59;8.20;97.00
10030;DHT22;5055;52.054;8.524;2023-04-03T12:12:37;8.30;97.00
10030;DHT22;5055;52.054;8.524;2023-04-03T12:15:50;8.40;97.00
10030;DHT22;5055;52.054;8.524;2023-04-03T12:18:56;8.70;97.00
10030;DHT22;5055;52.054;8.524;2023-04-03T12:22:08;9.00;97.00
10030;DHT22;5055;52.054;8.524;2023-04-03T12:24:37;9.00;97.00
10030;DHT22;5055;52.054;8.524;2023-04-03T12:27:22;9.00;97.00
10030;DHT22;5055;52.054;8.524;2023-04-03T12:29:56;8.90;97.00
10030;DHT22;5055;52.054;8.524;2023-04-03T12:35:44;9.00;97.00
10030;DHT22;5055;52.054;8.524;2023-04-03T12:41:21;8.70;97.00
10030;DHT22;5055;52.054;8.524;2023-04-03T12:44:17;8.60;97.00
10030;DHT22;5055;52.054;8.524;2023-04-03T12:46:50;8.60;97.00
10030;DHT22;5055;52.054;8.524;2023-04-03T12:49:32;8.80;97.00
10030;DHT22;5055;52.054;8.524;2023-04-03T12:52:05;9.10;97.00
10030;DHT22;5055;52.054;8.524;2023-04-03T12:54:36;9.40;97.00
10030;DHT22;5055;52.054;8.524;2023-04-03T12:57:11;9.90;97.00
10030;DHT22;5055;52.054;8.524;2023-04-03T12:59:41;9.90;97.00
10030;DHT22;5055;52.054;8.524;2023-04-03T13:02:20;9.70;97.00
10030;DHT22;5055;52.054;8.524;2023-04-03T13:04:50;9.50;97.00
10030;DHT22;5055;52.054;8.524;2023-04-03T13:07:22;9.80;97.00
10030;DHT22;5055;52.054;8.524;2023-04-03T13:09:56;10.20;97.00
10030;DHT22;5055;52.054;8.524;2023-04-03T13:12:26;10.20;97.00
10030;DHT22;5055;52.054;8.524;2023-04-03T13:15:02;10.60;97.00
10030;DHT22;5055;52.054;8.524;2023-04-03T13:17:31;10.50;97.00
10030;DHT22;5055;52.054;8.524;2023-04-03T13:20:12;10.60;97.00
10030;DHT22;5055;52.054;8.524;2023-04-03T13:22:47;10.50;97.00
10030;DHT22;5055;52.054;8.524;2023-04-03T13:25:17;11.10;97.00
10030;DHT22;5055;52.054;8.524;2023-04-03T13:27:49;10.70;97.00
10030;DHT22;5055;52.054;8.524;2023-04-03T13:30:30;10.30;97.00
10030;DHT22;5055;52.054;8.524;2023-04-03T13:33:01;10.20;97.00
10030;DHT22;5055;52.054;8.524;2023-04-03T13:35:36;10.30;97.00
10030;DHT22;5055;52.054;8.524;2023-04-03T13:38:21;10.30;97.00
10030;DHT22;5055;52.054;8.524;2023-04-03T13:40:51;10.90;97.00
10030;DHT22;5055;52.054;8.524;2023-04-03T13:43:21;11.60;97.00
10030;DHT22;5055;52.054;8.524;2023-04-03T13:46:01;11.90;97.00
10030;DHT22;5055;52.054;8.524;2023-04-03T13:48:37;11.80;97.00
10030;DHT22;5055;52.054;8.524;2023-04-03T13:51:18;12.10;97.00
10030;DHT22;5055;52.054;8.524;2023-04-03T13:53:49;11.50;97.00
10030;DHT22;5055;52.054;8.524;2023-04-03T13:56:30;11.40;97.00
10030;DHT22;5055;52.054;8.524;2023-04-03T13:59:05;11.40;97.00
10030;DHT22;5055;52.054;8.524;2023-04-03T14:01:42;10.80;97.00
10030;DHT22;5055;52.054;8.524;2023-04-03T14:04:16;10.80;97.00
10030;DHT22;5055;52.054;8.524;2023-04-03T14:06:45;10.70;97.00
10030;DHT22;5055;52.054;8.524;2023-04-03T14:09:14;10.90;97.00
10030;DHT22;5055;52.054;8.524;2023-04-03T14:11:44;11.60;97.00
10030;DHT22;5055;52.054;8.524;2023-04-03T14:14:15;12.10;97.00
10030;DHT22;5055;52.054;8.524;2023-04-03T14:16:48;12.00;97.00
10030;DHT22;5055;52.054;8.524;2023-04-03T14:19:21;11.30;97.00
10030;DHT22;5055;52.054;8.524;2023-04-03T14:21:51;10.90;97.00
10030;DHT22;5055;52.054;8.524;2023-04-03T14:24:20;10.50;97.00
10030;DHT22;5055;52.054;8.524;2023-04-03T14:26:51;10.30;97.00
10030;DHT22;5055;52.054;8.524;2023-04-03T14:29:20;10.50;97.00
10030;DHT22;5055;52.054;8.524;2023-04-03T14:31:51;10.50;97.00
10030;DHT22;5055;52.054;8.524;2023-04-03T14:34:37;10.90;97.00
10030;DHT22;5055;52.054;8.524;2023-04-03T14:37:10;11.70;97.00
10030;DHT22;5055;52.054;8.524;2023-04-03T14:39:40;12.50;97.00
10030;DHT22;5055;52.054;8.524;2023-04-03T14:42:12;12.60;97.00
10030;DHT22;5055;52.054;8.524;2023-04-03T14:44:41;12.70;97.00
10030;DHT22;5055;52.054;8.524;2023-04-03T14:47:13;13.40;97.00
10030;DHT22;5055;52.054;8.524;2023-04-03T14:49:57;13.60;97.00
10030;DHT22;5055;52.054;8.524;2023-04-03T14:52:28;13.30;97.00
10030;DHT22;5055;52.054;8.524;2023-04-03T14:54:58;12.50;97.00
10030;DHT22;5055;52.054;8.524;2023-04-03T14:57:28;11.80;97.00
10030;DHT22;5055;52.054;8.524;2023-04-03T14:59:58;11.30;97.00
10030;DHT22;5055;52.054;8.524;2023-04-03T15:02:31;10.80;97.00
10030;DHT22;5055;52.054;8.524;2023-04-03T15:05:02;10.90;97.00
10030;DHT22;5055;52.054;8.524;2023-04-03T15:07:33;11.50;97.00
10030;DHT22;5055;52.054;8.524;2023-04-03T15:10:06;12.20;97.00
10030;DHT22;5055;52.054;8.524;2023-04-03T15:12:42;13.00;97.00
10030;DHT22;5055;52.054;8.524;2023-04-03T15:15:10;13.60;97.00
10030;DHT22;5055;52.054;8.524;2023-04-03T15:17:44;14.40;97.00
10030;DHT22;5055;52.054;8.524;2023-04-03T15:20:15;14.70;97.00
10030;DHT22;5055;52.054;8.524;2023-04-03T15:22:44;14.90;97.00
10030;DHT22;5055;52.054;8.524;2023-04-03T15:25:12;15.00;97.00
10030;DHT22;5055;52.054;8.524;2023-04-03T15:27:41;14.80;97.00
10030;DHT22;5055;52.054;8.524;2023-04-03T15:30:14;13.80;97.00
10030;DHT22;5055;52.054;8.524;2023-04-03T15:32:45;12.80;97.00
10030;DHT22;5055;52.054;8.524;2023-04-03T15:35:14;12.00;97.00
10030;DHT22;5055;52.054;8.524;2023-04-03T15:37:43;11.00;97.00
10030;DHT22;5055;52.054;8.524;2023-04-03T15:40:12;10.80;97.00
10030;DHT22;5055;52.054;8.524;2023-04-03T15:42:40;10.90;97.00
10030;DHT22;5055;52.054;8.524;2023-04-03T15:45:09;11.30;97.00
10030;DHT22;5055;52.054;8.524;2023-04-03T15:47:38;12.00;97.00
10030;DHT22;5055;52.054;8.524;2023-04-03T15:50:09;12.20;97.00
10030;DHT22;5055;52.054;8.524;2023-04-03T15:52:37;11.70;97.00
10030;DHT22;5055;52.054;8.524;2023-04-03T15:55:06;12.10;97.00
10030;DHT22;5055;52.054;8.524;2023-04-03T15:57:34;12.30;97.00
10030;DHT22;5055;52.054;8.524;2023-04-03T16:00:04;12.80;97.00
10030;DHT22;5055;52.054;8.524;2023-04-03T16:02:33;13.20;97.00
10030;DHT22;5055;52.054;8.524;2023-04-03T16:05:02;13.50;97.00
10030;DHT22;5055;52.054;8.524;2023-04-03T16:07:32;13.50;97.00
10030;DHT22;5055;52.054;8.524;2023-04-03T16:10:01;12.90;97.00
10030;DHT22;5055;52.054;8.524;2023-04-03T16:12:29;12.80;97.00
10030;DHT22;5055;52.054;8.524;2023-04-03T16:14:57;12.70;97.00
10030;DHT22;5055;52.054;8.524;2023-04-03T16:17:26;12.50;97.00
10030;DHT22;5055;52.054;8.524;2023-04-03T16:19:55;12.00;97.00
10030;DHT22;5055;52.054;8.524;2023-04-03T16:22:25;11.20;97.00
10030;DHT22;5055;52.054;8.524;2023-04-03T16:24:55;10.40;97.00
10030;DHT22;5055;52.054;8.524;2023-04-03T16:27:24;10.00;97.00
10030;DHT22;5055;52.054;8.524;2023-04-03T16:29:54;9.50;97.00
10030;DHT22;5055;52.054;8.524;2023-04-03T16:32:23;9.20;97.00
10030;DHT22;5055;52.054;8.524;2023-04-03T16:34:55;9.10;97.00
10030;DHT22;5055;52.054;8.524;2023-04-03T16:37:24;9.10;97.00
10030;DHT22;5055;52.054;8.524;2023-04-03T16:39:56;9.40;97.00
10030;DHT22;5055;52.054;8.524;2023-04-03T16:42:25;9.80;97.00
10030;DHT22;5055;52.054;8.524;2023-04-03T16:44:53;10.00;97.00